Portada
METAR-TAF:

METAR-TAF

Aeroports :

Kazan, Rússia

latitud: 55-47N, longitud: 049-12E, altitud: 125 m

Observació

L'informe es va fer fa 44 minuts, a les 10:30 UTC
Vent 16 kt del Sud/Sud-Oest
Temperatura 15°C
Humitat 27%
Pressió 1009 hPa
Visibilitat 10 km o més
sense núvols per sota de 1500 mi sense presència de cumulonimbus.

METAR: UWKD 301030Z 20008MPS CAVOK 15/M04 Q1009 R11/CLRD60 NOSIG RMK QFE746/0995

Hora: 14:14 (11:14 UTC)

Pronòstic

L'informe es va fer fa 1 hora i 44 minuts, a les 09:30 UTC
Pronòstic vàlid del 30 a les 10 UTC al 31 a les 09 UTC
Vent 10 kt del Sud amb ràfegues de 23 kt
Visibilitat 10 km o més
sense núvols per sota de 1500 mi sense presència de cumulonimbus.
Temporalment
l' 30 a les 10 UTC al 30 a les 15 UTC
Vent 16 kt del Sud amb ràfegues de 29 kt
Evolucionant progressivament
l' 31 a les 06 UTC al 31 a les 08 UTC
Cel ennuvolat a una alçada de 1600 ft

TAF: UWKD 300930Z 3010/3109 17005G12MPS CAVOK TX14/3010Z TN02/3103Z TEMPO 3010/3015 18008G15MPS BECMG 3106/3108 BKN016

Observacions i pronòstics meteorològics de més de 4000 aeroports (METAR i TAF).

Les estacions disponibles són els punts grocs i vermells al mapa.

Posi el ratolí al punt desitjat per veure el nom de l'estació.

Feu clic per veure les observacions i els pronòstics meteorològics.

Per canviar el mapa: feu clic els botons verds amb una creu de color negre per apropar; al botó verd amb un guió per allunyar la imatge; o en les fletxes verdes per a mapes adjacents.


METAR-TAF: